createdAt,value
2023-05-05T00:00:39.879Z,0.00
2023-05-05T00:01:39.562Z,0.00
2023-05-05T00:02:39.695Z,0.00
2023-05-05T00:03:39.694Z,0.00
2023-05-05T00:04:40.769Z,0.00
2023-05-05T00:05:39.547Z,0.00
2023-05-05T00:06:39.535Z,0.00
2023-05-05T00:07:39.607Z,0.00
2023-05-05T00:08:39.512Z,0.00
2023-05-05T00:09:39.508Z,0.00
2023-05-05T00:10:39.502Z,0.00
2023-05-05T00:11:39.513Z,0.00
2023-05-05T00:12:39.614Z,0.00
2023-05-05T00:13:39.491Z,0.00
2023-05-05T00:14:39.483Z,0.00
2023-05-05T00:15:39.487Z,0.00
2023-05-05T00:16:39.502Z,0.00
2023-05-05T00:17:39.482Z,0.00
2023-05-05T00:18:39.430Z,0.00
2023-05-05T00:19:39.443Z,0.00
2023-05-05T00:20:39.451Z,0.00
2023-05-05T00:21:39.475Z,0.00
2023-05-05T00:22:39.451Z,0.00
2023-05-05T00:23:39.431Z,0.00
2023-05-05T00:24:39.436Z,0.00
2023-05-05T00:25:39.416Z,0.00
2023-05-05T00:26:39.396Z,0.00
2023-05-05T00:27:40.978Z,0.00
2023-05-05T00:28:40.398Z,0.00
2023-05-05T00:29:39.397Z,0.00
2023-05-05T00:30:39.401Z,0.00
2023-05-05T00:31:39.448Z,0.00
2023-05-05T00:32:39.439Z,0.00
2023-05-05T00:33:39.372Z,0.00
2023-05-05T00:34:39.352Z,0.00
2023-05-05T00:35:39.343Z,0.00
2023-05-05T00:36:39.325Z,0.00
2023-05-05T00:37:39.340Z,0.00
2023-05-05T00:38:39.361Z,0.00
2023-05-05T00:39:39.314Z,0.00
2023-05-05T00:40:39.311Z,0.00
2023-05-05T00:41:39.307Z,0.00
2023-05-05T00:42:39.305Z,0.00
2023-05-05T00:43:39.350Z,0.00
2023-05-05T00:44:39.316Z,0.00
2023-05-05T00:45:39.289Z,0.00
2023-05-05T00:46:39.312Z,0.00
2023-05-05T00:47:39.306Z,0.00
2023-05-05T00:48:39.264Z,0.00
2023-05-05T00:49:39.420Z,0.00
2023-05-05T00:50:39.252Z,0.00
2023-05-05T00:51:39.275Z,0.00
2023-05-05T00:52:39.256Z,0.00
2023-05-05T00:53:39.243Z,0.00
2023-05-05T00:54:39.241Z,0.00
2023-05-05T00:55:39.217Z,0.00
2023-05-05T00:56:39.260Z,0.00
2023-05-05T00:57:39.208Z,0.00
2023-05-05T00:58:39.197Z,0.00
2023-05-05T00:59:39.206Z,0.00
2023-05-05T01:00:39.217Z,0.00
2023-05-05T01:01:39.231Z,0.00
2023-05-05T01:02:39.266Z,0.00
2023-05-05T01:03:39.215Z,0.00
2023-05-05T01:04:39.178Z,0.00
2023-05-05T01:05:39.241Z,0.00
2023-05-05T01:06:39.193Z,0.00
2023-05-05T01:07:39.252Z,0.00
2023-05-05T01:08:39.988Z,0.00
2023-05-05T01:09:39.156Z,0.00
2023-05-05T01:10:39.179Z,0.00
2023-05-05T01:11:39.196Z,0.00
2023-05-05T01:12:39.144Z,0.00
2023-05-05T01:13:39.120Z,0.00
2023-05-05T01:14:39.121Z,0.00
2023-05-05T01:15:39.119Z,0.00
2023-05-05T01:16:39.145Z,0.00
2023-05-05T01:17:39.136Z,0.00
2023-05-05T01:18:39.092Z,0.00
2023-05-05T01:19:39.102Z,0.00
2023-05-05T01:20:39.097Z,0.00
2023-05-05T01:21:39.106Z,0.00
2023-05-05T01:22:39.072Z,0.00
2023-05-05T01:23:39.099Z,0.00
2023-05-05T01:24:39.053Z,0.00
2023-05-05T01:25:39.068Z,0.00
2023-05-05T01:26:39.045Z,0.00
2023-05-05T01:27:39.064Z,0.00
2023-05-05T01:28:39.060Z,0.00
2023-05-05T01:29:39.033Z,0.00
2023-05-05T01:30:39.084Z,0.00
2023-05-05T01:31:39.136Z,0.00
2023-05-05T01:32:39.029Z,0.00
2023-05-05T01:33:39.013Z,0.00
2023-05-05T01:34:39.023Z,0.00
2023-05-05T01:35:38.996Z,0.00
2023-05-05T01:36:39.020Z,0.00
2023-05-05T01:37:38.990Z,0.00
2023-05-05T01:38:38.963Z,0.00
2023-05-05T01:39:38.995Z,0.00
2023-05-05T01:40:38.981Z,0.00
2023-05-05T01:41:38.938Z,0.00
2023-05-05T01:42:38.958Z,0.00
2023-05-05T01:43:38.944Z,0.00
2023-05-05T01:44:38.957Z,0.00
2023-05-05T01:45:38.964Z,0.00
2023-05-05T01:46:38.922Z,0.00
2023-05-05T01:47:38.930Z,0.00
2023-05-05T01:48:40.354Z,0.00
2023-05-05T01:49:38.920Z,0.00
2023-05-05T01:50:38.914Z,0.00
2023-05-05T01:51:38.889Z,0.00
2023-05-05T01:52:38.867Z,0.00
2023-05-05T01:53:38.877Z,0.00
2023-05-05T01:54:38.923Z,0.00
2023-05-05T01:55:38.881Z,0.00
2023-05-05T01:56:38.866Z,0.00
2023-05-05T01:57:38.836Z,0.00
2023-05-05T01:58:38.845Z,0.00
2023-05-05T01:59:38.825Z,0.00
2023-05-05T02:00:38.879Z,0.00
2023-05-05T02:01:38.872Z,0.00
2023-05-05T02:02:38.882Z,0.00
2023-05-05T02:03:38.942Z,0.00
2023-05-05T02:04:38.807Z,0.00
2023-05-05T02:05:38.836Z,0.00
2023-05-05T02:07:11.219Z,0.00
2023-05-05T02:07:38.820Z,0.00
2023-05-05T02:09:12.214Z,0.00
2023-05-05T02:10:11.218Z,0.00
2023-05-05T02:10:38.798Z,0.00
2023-05-05T02:12:11.205Z,0.00
2023-05-05T02:12:38.908Z,0.00
2023-05-05T02:14:12.195Z,0.00
2023-05-05T02:15:11.185Z,0.00
2023-05-05T02:15:38.789Z,0.00
2023-05-05T02:17:11.213Z,0.00
2023-05-05T02:17:38.769Z,0.00
2023-05-05T02:18:38.715Z,0.00
2023-05-05T02:19:38.705Z,0.00
2023-05-05T02:20:38.708Z,0.00
2023-05-05T02:21:38.720Z,0.00
2023-05-05T02:22:38.685Z,0.00
2023-05-05T02:23:38.723Z,0.00
2023-05-05T02:24:38.674Z,0.00
2023-05-05T02:25:38.684Z,0.00
2023-05-05T02:26:38.672Z,0.00
2023-05-05T02:27:39.706Z,0.00
2023-05-05T02:28:38.665Z,0.00
2023-05-05T02:29:38.645Z,0.00
2023-05-05T02:30:38.651Z,0.00
2023-05-05T02:31:38.659Z,0.00
2023-05-05T02:32:38.681Z,0.00
2023-05-05T02:33:38.631Z,0.00
2023-05-05T02:34:38.620Z,0.00
2023-05-05T02:35:38.614Z,0.00
2023-05-05T02:36:38.657Z,0.00
2023-05-05T02:37:38.594Z,0.00
2023-05-05T02:38:38.609Z,0.00
2023-05-05T02:39:38.577Z,0.00
2023-05-05T02:40:38.573Z,0.00
2023-05-05T02:41:38.576Z,0.00
2023-05-05T02:42:38.600Z,0.00
2023-05-05T02:43:38.585Z,0.00
2023-05-05T02:44:38.563Z,0.00
2023-05-05T02:45:38.554Z,0.00
2023-05-05T02:46:38.573Z,0.00
2023-05-05T02:47:38.643Z,0.00
2023-05-05T02:48:38.568Z,0.00
2023-05-05T02:49:38.553Z,0.00
2023-05-05T02:50:38.535Z,0.00
2023-05-05T02:51:38.558Z,0.00
2023-05-05T02:52:38.545Z,0.00
2023-05-05T02:53:38.518Z,0.00
2023-05-05T02:54:38.566Z,0.00
2023-05-05T02:55:38.541Z,0.00
2023-05-05T02:56:38.530Z,0.00
2023-05-05T02:57:38.478Z,0.00
2023-05-05T02:58:38.850Z,0.00
2023-05-05T02:59:38.484Z,0.00
2023-05-05T03:00:38.471Z,0.00
2023-05-05T03:01:38.521Z,0.00
2023-05-05T03:02:38.506Z,0.00
2023-05-05T03:03:38.564Z,0.00
2023-05-05T03:04:38.443Z,0.00
2023-05-05T03:05:38.455Z,0.00
2023-05-05T03:06:38.426Z,0.00
2023-05-05T03:07:38.449Z,0.00
2023-05-05T03:08:38.404Z,0.00
2023-05-05T03:09:38.425Z,0.00
2023-05-05T03:10:38.380Z,0.00
2023-05-05T03:11:38.396Z,0.00
2023-05-05T03:12:38.387Z,0.00
2023-05-05T03:13:38.412Z,0.00
2023-05-05T03:14:38.392Z,0.00
2023-05-05T03:15:38.386Z,0.00
2023-05-05T03:16:38.443Z,0.00
2023-05-05T03:17:38.422Z,0.00
2023-05-05T03:18:38.364Z,0.00
2023-05-05T03:19:38.380Z,0.00
2023-05-05T03:20:38.373Z,0.00
2023-05-05T03:21:38.329Z,0.00
2023-05-05T03:22:38.351Z,0.00
2023-05-05T03:23:38.320Z,0.00
2023-05-05T03:24:38.296Z,0.00
2023-05-05T03:25:38.296Z,0.00
2023-05-05T03:26:38.287Z,0.00
2023-05-05T03:27:38.323Z,0.00
2023-05-05T03:28:38.277Z,0.00
2023-05-05T03:29:38.309Z,0.00
2023-05-05T03:30:38.279Z,0.00
2023-05-05T03:31:38.318Z,0.00
2023-05-05T03:32:38.297Z,0.00
2023-05-05T03:33:38.267Z,0.00
2023-05-05T03:34:38.244Z,0.00
2023-05-05T03:35:38.229Z,0.00
2023-05-05T03:36:38.244Z,0.00
2023-05-05T03:37:38.225Z,0.00
2023-05-05T03:38:38.239Z,0.00
2023-05-05T03:39:38.228Z,0.00
2023-05-05T03:40:44.186Z,0.00
2023-05-05T03:41:40.218Z,0.00
2023-05-05T03:42:38.195Z,0.00
2023-05-05T03:43:38.220Z,0.00
2023-05-05T03:44:38.174Z,0.00
2023-05-05T03:45:38.371Z,0.00
2023-05-05T03:46:38.185Z,5.62
2023-05-05T03:47:38.164Z,5.62
2023-05-05T03:48:38.166Z,5.62
2023-05-05T03:49:38.161Z,5.62
2023-05-05T03:50:38.144Z,5.62
2023-05-05T03:51:38.179Z,5.62
2023-05-05T03:52:38.248Z,5.62
2023-05-05T03:53:38.117Z,5.62
2023-05-05T03:54:38.785Z,5.62
2023-05-05T03:55:38.133Z,11.25
2023-05-05T03:56:38.094Z,11.25
2023-05-05T03:57:38.101Z,11.25
2023-05-05T03:58:38.106Z,11.25
2023-05-05T03:59:38.075Z,11.25
2023-05-05T04:00:38.112Z,11.25
2023-05-05T04:01:38.069Z,16.88
2023-05-05T04:02:38.204Z,16.88
2023-05-05T04:03:38.144Z,16.88
2023-05-05T04:04:38.066Z,16.88
2023-05-05T04:05:38.057Z,16.88
2023-05-05T04:06:38.033Z,16.88
2023-05-05T04:07:38.054Z,22.50
2023-05-05T04:08:38.020Z,22.50
2023-05-05T04:09:38.048Z,22.50
2023-05-05T04:10:38.017Z,22.50
2023-05-05T04:11:38.026Z,22.50
2023-05-05T04:12:38.041Z,28.12
2023-05-05T04:13:38.030Z,28.12
2023-05-05T04:14:38.005Z,28.12
2023-05-05T04:15:38.023Z,33.75
2023-05-05T04:16:38.014Z,33.75
2023-05-05T04:17:38.013Z,39.38
2023-05-05T04:18:37.975Z,39.38
2023-05-05T04:19:37.979Z,39.38
2023-05-05T04:20:37.946Z,45.00
2023-05-05T04:21:37.952Z,45.00
2023-05-05T04:22:37.935Z,45.00
2023-05-05T04:23:37.948Z,45.00
2023-05-05T04:24:37.929Z,50.62
2023-05-05T04:25:37.956Z,50.62
2023-05-05T04:26:37.940Z,50.62
2023-05-05T04:27:37.918Z,56.25
2023-05-05T04:28:37.926Z,56.25
2023-05-05T04:29:37.884Z,56.25
2023-05-05T04:30:37.939Z,61.88
2023-05-05T04:31:38.006Z,61.88
2023-05-05T04:32:37.983Z,61.88
2023-05-05T04:33:37.925Z,67.50
2023-05-05T04:34:37.901Z,67.50
2023-05-05T04:35:37.869Z,67.50
2023-05-05T04:36:37.851Z,67.50
2023-05-05T04:37:37.886Z,73.12
2023-05-05T04:38:37.933Z,73.12
2023-05-05T04:39:37.871Z,73.12
2023-05-05T04:40:37.840Z,73.12
2023-05-05T04:41:37.848Z,73.12
2023-05-05T04:42:37.915Z,73.12
2023-05-05T04:43:37.814Z,78.75
2023-05-05T04:44:37.837Z,78.75
2023-05-05T04:45:37.857Z,78.75
2023-05-05T04:46:37.830Z,78.75
2023-05-05T04:47:37.866Z,90.00
2023-05-05T04:48:38.512Z,90.00
2023-05-05T04:49:37.838Z,90.00
2023-05-05T04:50:37.778Z,90.00
2023-05-05T04:51:37.924Z,90.00
2023-05-05T04:52:37.771Z,95.62
2023-05-05T04:53:37.884Z,101.25
2023-05-05T04:54:37.768Z,101.25
2023-05-05T04:55:38.757Z,106.88
2023-05-05T04:56:37.769Z,106.88
2023-05-05T04:57:37.807Z,123.75
2023-05-05T04:58:37.753Z,129.38
2023-05-05T04:59:37.737Z,135.00
2023-05-05T05:00:37.762Z,140.62
2023-05-05T05:01:38.731Z,146.25
2023-05-05T05:02:38.866Z,151.88
2023-05-05T05:03:37.931Z,157.50
2023-05-05T05:04:37.754Z,163.12
2023-05-05T05:05:37.779Z,168.75
2023-05-05T05:06:37.756Z,168.75
2023-05-05T05:07:37.684Z,174.38
2023-05-05T05:08:37.705Z,180.00
2023-05-05T05:09:37.679Z,174.38
2023-05-05T05:10:38.702Z,168.75
2023-05-05T05:11:37.725Z,168.75
2023-05-05T05:12:37.726Z,163.12
2023-05-05T05:13:37.683Z,174.38
2023-05-05T05:14:37.632Z,180.00
2023-05-05T05:15:37.616Z,180.00
2023-05-05T05:16:37.684Z,174.38
2023-05-05T05:17:37.770Z,163.12
2023-05-05T05:18:37.651Z,168.75
2023-05-05T05:19:37.621Z,180.00
2023-05-05T05:20:37.612Z,180.00
2023-05-05T05:21:37.606Z,174.38
2023-05-05T05:22:37.583Z,168.75
2023-05-05T05:23:37.575Z,168.75
2023-05-05T05:24:37.639Z,163.12
2023-05-05T05:25:37.569Z,163.12
2023-05-05T05:26:37.594Z,157.50
2023-05-05T05:27:37.596Z,151.88
2023-05-05T05:28:37.546Z,135.00
2023-05-05T05:29:37.599Z,135.00
2023-05-05T05:30:37.583Z,140.62
2023-05-05T05:31:37.580Z,140.62
2023-05-05T05:32:37.571Z,146.25
2023-05-05T05:33:37.525Z,151.88
2023-05-05T05:34:37.535Z,151.88
2023-05-05T05:35:37.539Z,151.88
2023-05-05T05:36:37.554Z,157.50
2023-05-05T05:37:37.496Z,163.12
2023-05-05T05:38:37.509Z,168.75
2023-05-05T05:39:37.464Z,174.38
2023-05-05T05:40:37.475Z,174.38
2023-05-05T05:41:37.526Z,180.00
2023-05-05T05:42:37.538Z,191.25
2023-05-05T05:43:37.466Z,196.88
2023-05-05T05:44:37.412Z,213.75
2023-05-05T05:45:37.607Z,219.38
2023-05-05T05:46:37.466Z,219.38
2023-05-05T05:47:37.446Z,236.25
2023-05-05T05:48:38.427Z,270.00
2023-05-05T05:49:37.409Z,275.62
2023-05-05T05:50:37.394Z,275.62
2023-05-05T05:51:37.385Z,275.62
2023-05-05T05:52:37.391Z,275.62
2023-05-05T05:53:37.364Z,264.38
2023-05-05T05:54:37.360Z,258.75
2023-05-05T05:56:09.823Z,236.25
2023-05-05T05:56:37.368Z,225.00
2023-05-05T05:57:37.372Z,225.00
2023-05-05T05:58:37.385Z,213.75
2023-05-05T05:59:37.314Z,213.75
2023-05-05T06:00:37.325Z,219.38
2023-05-05T06:01:37.325Z,219.38
2023-05-05T06:02:37.464Z,225.00
2023-05-05T06:03:37.375Z,219.38
2023-05-05T06:04:37.362Z,208.12
2023-05-05T06:05:37.283Z,213.75
2023-05-05T06:06:37.299Z,219.38
2023-05-05T06:07:37.281Z,236.25
2023-05-05T06:08:37.278Z,253.12
2023-05-05T06:09:37.275Z,258.75
2023-05-05T06:10:37.253Z,264.38
2023-05-05T06:11:37.250Z,264.38
2023-05-05T06:12:37.284Z,298.12
2023-05-05T06:13:37.212Z,281.25
2023-05-05T06:14:37.240Z,286.88
2023-05-05T06:15:37.272Z,292.50
2023-05-05T06:16:37.198Z,292.50
2023-05-05T06:17:37.192Z,303.75
2023-05-05T06:18:37.205Z,309.38
2023-05-05T06:19:37.211Z,315.00
2023-05-05T06:20:37.184Z,315.00
2023-05-05T06:21:37.212Z,315.00
2023-05-05T06:22:37.173Z,303.75
2023-05-05T06:23:37.505Z,292.50
2023-05-05T06:24:37.176Z,275.62
2023-05-05T06:25:37.337Z,275.62
2023-05-05T06:26:37.144Z,292.50
2023-05-05T06:27:37.152Z,275.62
2023-05-05T06:28:37.135Z,286.88
2023-05-05T06:29:37.109Z,286.88
2023-05-05T06:30:37.101Z,309.38
2023-05-05T06:31:37.191Z,326.25
2023-05-05T06:32:37.128Z,337.50
2023-05-05T06:33:37.166Z,343.12
2023-05-05T06:34:37.079Z,348.75
2023-05-05T06:35:37.188Z,354.38
2023-05-05T06:36:37.231Z,360.00
2023-05-05T06:37:37.167Z,360.00
2023-05-05T06:38:37.048Z,388.12
2023-05-05T06:39:37.052Z,388.12
2023-05-05T06:40:37.106Z,376.88
2023-05-05T06:41:37.040Z,388.12
2023-05-05T06:42:37.064Z,388.12
2023-05-05T06:43:37.051Z,393.75
2023-05-05T06:44:37.043Z,382.50
2023-05-05T06:45:37.079Z,376.88
2023-05-05T06:46:37.016Z,360.00
2023-05-05T06:47:37.087Z,331.88
2023-05-05T06:48:37.016Z,320.62
2023-05-05T06:49:37.027Z,315.00
2023-05-05T06:50:37.170Z,320.62
2023-05-05T06:51:36.998Z,326.25
2023-05-05T06:52:36.961Z,326.25
2023-05-05T06:53:36.963Z,337.50
2023-05-05T06:54:36.963Z,354.38
2023-05-05T06:55:36.961Z,365.62
2023-05-05T06:56:36.928Z,360.00
2023-05-05T06:57:36.943Z,354.38
2023-05-05T06:58:37.043Z,354.38
2023-05-05T06:59:36.910Z,343.12
2023-05-05T07:00:37.023Z,331.88
2023-05-05T07:01:36.956Z,315.00
2023-05-05T07:02:36.924Z,320.62
2023-05-05T07:03:36.955Z,331.88
2023-05-05T07:04:36.926Z,354.38
2023-05-05T07:05:36.893Z,365.62
2023-05-05T07:06:37.041Z,376.88
2023-05-05T07:07:37.157Z,388.12
2023-05-05T07:08:36.853Z,405.00
2023-05-05T07:09:37.037Z,427.50
2023-05-05T07:10:36.857Z,455.62
2023-05-05T07:11:36.838Z,495.00
2023-05-05T07:12:36.905Z,495.00
2023-05-05T07:13:36.838Z,506.25
2023-05-05T07:14:36.849Z,511.88
2023-05-05T07:15:36.988Z,523.12
2023-05-05T07:16:36.863Z,528.75
2023-05-05T07:17:36.889Z,562.50
2023-05-05T07:18:36.824Z,686.25
2023-05-05T07:19:36.826Z,736.88
2023-05-05T07:21:10.233Z,731.25
2023-05-05T07:22:09.465Z,686.25
2023-05-05T07:22:36.796Z,736.88
2023-05-05T07:24:09.220Z,765.00
2023-05-05T07:24:36.809Z,691.88
2023-05-05T07:26:09.214Z,652.50
2023-05-05T07:27:10.376Z,691.88
2023-05-05T07:28:09.171Z,731.25
2023-05-05T07:29:09.185Z,703.12
2023-05-05T07:30:13.225Z,483.75
2023-05-05T07:30:37.740Z,601.88
2023-05-05T07:31:36.787Z,500.62
2023-05-05T07:32:36.744Z,433.12
2023-05-05T07:33:36.733Z,461.25
2023-05-05T07:34:37.986Z,506.25
2023-05-05T07:35:36.711Z,568.12
2023-05-05T07:36:36.739Z,753.75
2023-05-05T07:37:36.771Z,973.12
2023-05-05T07:38:36.703Z,1001.25
2023-05-05T07:39:36.670Z,1051.88
2023-05-05T07:40:36.668Z,984.38
2023-05-05T07:41:36.681Z,978.75
2023-05-05T07:42:36.689Z,950.62
2023-05-05T07:43:37.714Z,888.75
2023-05-05T07:44:36.642Z,950.62
2023-05-05T07:45:36.632Z,916.88
2023-05-05T07:46:36.817Z,973.12
2023-05-05T07:47:36.698Z,995.62
2023-05-05T07:48:36.635Z,607.50
2023-05-05T07:49:36.686Z,590.62
2023-05-05T07:50:36.654Z,686.25
2023-05-05T07:51:36.603Z,1310.62
2023-05-05T07:52:47.902Z,658.12
2023-05-05T07:53:38.870Z,1726.88
2023-05-05T07:54:36.918Z,1338.75
2023-05-05T07:55:36.598Z,714.38
2023-05-05T07:56:36.581Z,534.38
2023-05-05T07:57:36.572Z,495.00
2023-05-05T07:58:36.608Z,489.38
2023-05-05T07:59:36.566Z,500.62
2023-05-05T08:00:36.559Z,523.12
2023-05-05T08:01:36.528Z,551.25
2023-05-05T08:02:36.631Z,523.12
2023-05-05T08:03:36.639Z,455.62
2023-05-05T08:04:36.575Z,444.38
2023-05-05T08:05:36.507Z,613.12
2023-05-05T08:06:36.516Z,838.12
2023-05-05T08:07:36.565Z,1085.62
2023-05-05T08:08:36.493Z,427.50
2023-05-05T08:09:36.619Z,286.88
2023-05-05T08:10:36.498Z,270.00
2023-05-05T08:11:36.450Z,247.50
2023-05-05T08:12:36.504Z,230.62
2023-05-05T08:13:36.471Z,213.75
2023-05-05T08:14:36.468Z,202.50
2023-05-05T08:15:36.483Z,196.88
2023-05-05T08:16:36.610Z,196.88
2023-05-05T08:17:36.484Z,191.25
2023-05-05T08:18:36.433Z,185.62
2023-05-05T08:19:36.404Z,180.00
2023-05-05T08:20:36.456Z,180.00
2023-05-05T08:21:36.429Z,180.00
2023-05-05T08:22:36.437Z,191.25
2023-05-05T08:23:36.397Z,213.75
2023-05-05T08:24:36.465Z,230.62
2023-05-05T08:25:36.522Z,253.12
2023-05-05T08:26:36.401Z,281.25
2023-05-05T08:27:36.368Z,326.25
2023-05-05T08:28:36.351Z,371.25
2023-05-05T08:29:36.355Z,416.25
2023-05-05T08:30:36.365Z,455.62
2023-05-05T08:31:36.356Z,483.75
2023-05-05T08:32:36.433Z,590.62
2023-05-05T08:33:36.360Z,978.75
2023-05-05T08:34:36.363Z,663.75
2023-05-05T08:35:36.320Z,556.88
2023-05-05T08:36:36.414Z,540.00
2023-05-05T08:37:36.305Z,528.75
2023-05-05T08:38:36.304Z,495.00
2023-05-05T08:39:36.290Z,461.25
2023-05-05T08:40:36.315Z,416.25
2023-05-05T08:41:36.456Z,382.50
2023-05-05T08:42:38.585Z,365.62
2023-05-05T08:43:37.288Z,376.88
2023-05-05T08:44:36.255Z,421.88
2023-05-05T08:45:36.239Z,478.12
2023-05-05T08:46:36.293Z,545.62
2023-05-05T08:47:36.225Z,646.88
2023-05-05T08:48:36.238Z,1338.75
2023-05-05T08:49:36.202Z,900.00
2023-05-05T08:50:36.215Z,781.88
2023-05-05T08:51:36.282Z,810.00
2023-05-05T08:52:36.307Z,776.25
2023-05-05T08:53:36.230Z,624.38
2023-05-05T08:54:36.209Z,601.88
2023-05-05T08:55:36.196Z,1288.12
2023-05-05T08:56:36.183Z,500.62
2023-05-05T08:57:36.235Z,410.62
2023-05-05T08:58:36.156Z,399.38
2023-05-05T08:59:36.151Z,421.88
2023-05-05T09:00:36.131Z,450.00
2023-05-05T09:01:36.296Z,495.00
2023-05-05T09:02:36.264Z,573.75
2023-05-05T09:03:36.502Z,641.25
2023-05-05T09:04:36.146Z,669.38
2023-05-05T09:05:36.145Z,703.12
2023-05-05T09:06:36.163Z,613.12
2023-05-05T09:07:36.091Z,556.88
2023-05-05T09:08:36.119Z,596.25
2023-05-05T09:09:36.097Z,506.25
2023-05-05T09:10:36.098Z,534.38
2023-05-05T09:11:36.108Z,495.00
2023-05-05T09:12:36.163Z,495.00
2023-05-05T09:13:36.135Z,528.75
2023-05-05T09:14:36.088Z,686.25
2023-05-05T09:15:36.048Z,455.62
2023-05-05T09:16:36.169Z,427.50
2023-05-05T09:17:36.074Z,410.62
2023-05-05T09:18:36.024Z,393.75
2023-05-05T09:19:36.690Z,388.12
2023-05-05T09:20:36.036Z,382.50
2023-05-05T09:21:36.199Z,399.38
2023-05-05T09:22:36.082Z,455.62
2023-05-05T09:23:36.058Z,562.50
2023-05-05T09:24:36.031Z,658.12
2023-05-05T09:25:36.002Z,720.00
2023-05-05T09:26:36.014Z,793.12
2023-05-05T09:27:36.023Z,1040.62
2023-05-05T09:28:36.010Z,793.12
2023-05-05T09:29:36.049Z,838.12
2023-05-05T09:30:36.026Z,1175.62
2023-05-05T09:31:35.940Z,843.75
2023-05-05T09:32:35.954Z,765.00
2023-05-05T09:33:35.962Z,815.62
2023-05-05T09:34:35.972Z,838.12
2023-05-05T09:35:35.945Z,1057.50
2023-05-05T09:36:35.994Z,1063.12
2023-05-05T09:37:35.943Z,2086.88
2023-05-05T09:38:36.063Z,2160.00
2023-05-05T09:39:36.002Z,1968.75
2023-05-05T09:40:35.918Z,2058.75
2023-05-05T09:41:35.934Z,2081.25
2023-05-05T09:42:35.901Z,2064.38
2023-05-05T09:43:35.911Z,1963.12
2023-05-05T09:44:35.969Z,1929.38
2023-05-05T09:45:35.877Z,1895.62
2023-05-05T09:46:35.903Z,1856.25
2023-05-05T09:47:35.876Z,1861.88
2023-05-05T09:48:35.900Z,1856.25
2023-05-05T09:49:35.868Z,1625.62
2023-05-05T09:50:35.864Z,1456.88
2023-05-05T09:51:36.825Z,1321.88
2023-05-05T09:52:35.838Z,1096.88
2023-05-05T09:53:35.827Z,1018.12
2023-05-05T09:54:35.825Z,978.75
2023-05-05T09:55:35.789Z,1080.00
2023-05-05T09:56:35.804Z,1698.75
2023-05-05T09:57:35.792Z,1456.88
2023-05-05T09:58:35.827Z,1603.12
2023-05-05T09:59:35.797Z,2041.88
2023-05-05T10:00:35.789Z,2120.62
2023-05-05T10:01:35.888Z,2210.62
2023-05-05T10:02:35.793Z,2160.00
2023-05-05T10:03:35.769Z,2019.38
2023-05-05T10:04:35.783Z,2008.12
2023-05-05T10:05:35.776Z,1940.62
2023-05-05T10:06:35.761Z,1850.62
2023-05-05T10:07:35.770Z,1867.50
2023-05-05T10:08:35.782Z,1980.00
2023-05-05T10:09:35.710Z,2058.75
2023-05-05T10:10:35.712Z,2013.75
2023-05-05T10:11:35.716Z,2086.88
2023-05-05T10:12:35.714Z,2283.75
2023-05-05T10:13:35.683Z,2328.75
2023-05-05T10:14:36.665Z,2306.25
2023-05-05T10:15:35.699Z,2385.00
2023-05-05T10:16:35.777Z,2317.50
2023-05-05T10:17:35.760Z,2210.62
2023-05-05T10:18:35.740Z,2103.75
2023-05-05T10:19:35.697Z,2092.50
2023-05-05T10:20:35.696Z,2058.75
2023-05-05T10:21:35.668Z,1980.00
2023-05-05T10:22:35.754Z,1974.38
2023-05-05T10:23:35.621Z,1816.88
2023-05-05T10:24:35.658Z,1788.75
2023-05-05T10:25:35.759Z,1771.88
2023-05-05T10:26:35.660Z,1828.12
2023-05-05T10:27:35.634Z,1681.88
2023-05-05T10:28:35.752Z,1496.25
2023-05-05T10:29:35.692Z,1575.00
2023-05-05T10:30:35.621Z,1665.00
2023-05-05T10:31:35.649Z,1828.12
2023-05-05T10:32:56.410Z,2086.88
2023-05-05T10:33:37.742Z,2165.62
2023-05-05T10:34:35.761Z,2165.62
2023-05-05T10:35:35.577Z,1873.12
2023-05-05T10:36:35.580Z,1996.88
2023-05-05T10:37:35.637Z,1940.62
2023-05-05T10:38:35.583Z,1895.62
2023-05-05T10:39:35.575Z,1963.12
2023-05-05T10:40:35.555Z,1996.88
2023-05-05T10:41:35.653Z,1816.88
2023-05-05T10:42:35.541Z,1805.62
2023-05-05T10:43:35.542Z,1794.38
2023-05-05T10:44:36.293Z,1828.12
2023-05-05T10:45:35.593Z,1771.88
2023-05-05T10:46:35.645Z,1710.00
2023-05-05T10:47:35.593Z,1743.75
2023-05-05T10:48:35.578Z,1653.75
2023-05-05T10:49:35.519Z,1479.38
2023-05-05T10:50:35.536Z,1355.62
2023-05-05T10:51:40.002Z,1968.75
2023-05-05T10:52:37.527Z,1738.12
2023-05-05T10:53:35.496Z,1794.38
2023-05-05T10:54:37.843Z,2047.50
2023-05-05T10:55:35.474Z,1591.88
2023-05-05T10:56:35.478Z,1721.25
2023-05-05T10:57:35.470Z,1794.38
2023-05-05T10:58:46.918Z,1811.25
2023-05-05T10:59:37.496Z,1811.25
2023-05-05T11:00:35.479Z,1940.62
2023-05-05T11:01:35.684Z,1749.38
2023-05-05T11:02:35.492Z,1715.62
2023-05-05T11:03:35.591Z,1507.50
2023-05-05T11:04:35.443Z,1591.88
2023-05-05T11:05:35.540Z,1710.00
2023-05-05T11:06:35.455Z,1850.62
2023-05-05T11:07:35.420Z,1968.75
2023-05-05T11:08:35.460Z,1946.25
2023-05-05T11:09:35.416Z,1935.00
2023-05-05T11:10:35.464Z,1906.88
2023-05-05T11:11:35.467Z,1878.75
2023-05-05T11:12:37.405Z,1912.50
2023-05-05T11:13:35.559Z,2137.50
2023-05-05T11:14:36.424Z,2098.12
2023-05-05T11:15:35.465Z,1996.88
2023-05-05T11:16:35.471Z,2075.62
2023-05-05T11:17:35.533Z,1929.38
2023-05-05T11:18:35.451Z,1935.00
2023-05-05T11:19:35.453Z,1918.12
2023-05-05T11:20:35.460Z,1968.75
2023-05-05T11:21:35.404Z,1935.00
2023-05-05T11:22:35.371Z,1873.12
2023-05-05T11:23:35.355Z,1546.88
2023-05-05T11:24:35.371Z,1704.38
2023-05-05T11:25:35.694Z,2058.75
2023-05-05T11:26:35.347Z,2002.50
2023-05-05T11:27:35.319Z,2070.00
2023-05-05T11:28:35.314Z,1811.25
2023-05-05T11:29:35.369Z,1456.88
2023-05-05T11:30:35.330Z,1935.00
2023-05-05T11:31:35.325Z,1906.88
2023-05-05T11:32:35.321Z,1485.00
2023-05-05T11:33:35.344Z,1102.50
2023-05-05T11:34:35.315Z,1299.38
2023-05-05T11:35:35.348Z,1333.12
2023-05-05T11:36:35.270Z,1575.00
2023-05-05T11:37:35.297Z,1276.88
2023-05-05T11:38:35.284Z,1136.25
2023-05-05T11:39:35.299Z,1383.75
2023-05-05T11:40:35.266Z,1327.50
2023-05-05T11:41:35.268Z,1389.38
2023-05-05T11:42:35.245Z,1237.50
2023-05-05T11:43:35.310Z,1445.62
2023-05-05T11:44:35.256Z,1530.00
2023-05-05T11:45:35.231Z,1350.00
2023-05-05T11:46:35.331Z,1569.38
2023-05-05T11:47:35.841Z,1220.62
2023-05-05T11:48:35.262Z,1496.25
2023-05-05T11:49:35.243Z,1580.62
2023-05-05T11:50:35.235Z,1631.25
2023-05-05T11:51:35.316Z,1704.38
2023-05-05T11:52:35.179Z,1445.62
2023-05-05T11:53:35.190Z,1355.62
2023-05-05T11:54:35.324Z,753.75
2023-05-05T11:55:35.172Z,1203.75
2023-05-05T11:56:35.169Z,1080.00
2023-05-05T11:57:35.185Z,1743.75
2023-05-05T11:58:35.152Z,1586.25
2023-05-05T11:59:35.182Z,1350.00
2023-05-05T12:00:35.288Z,1181.25
2023-05-05T12:01:35.182Z,995.62
2023-05-05T12:02:35.322Z,489.38
2023-05-05T12:03:35.236Z,421.88
2023-05-05T12:04:35.185Z,365.62
2023-05-05T12:05:36.700Z,309.38
2023-05-05T12:06:36.155Z,270.00
2023-05-05T12:07:35.134Z,230.62
2023-05-05T12:08:35.148Z,208.12
2023-05-05T12:09:35.186Z,196.88
2023-05-05T12:10:35.120Z,196.88
2023-05-05T12:11:35.133Z,202.50
2023-05-05T12:12:35.120Z,208.12
2023-05-05T12:13:35.105Z,213.75
2023-05-05T12:14:35.108Z,213.75
2023-05-05T12:15:35.072Z,219.38
2023-05-05T12:16:35.133Z,225.00
2023-05-05T12:17:35.069Z,219.38
2023-05-05T12:18:35.180Z,213.75
2023-05-05T12:19:35.068Z,196.88
2023-05-05T12:20:35.876Z,196.88
2023-05-05T12:21:35.076Z,196.88
2023-05-05T12:22:35.042Z,202.50
2023-05-05T12:23:35.016Z,202.50
2023-05-05T12:24:35.054Z,196.88
2023-05-05T12:25:35.103Z,196.88
2023-05-05T12:26:35.058Z,185.62
2023-05-05T12:27:34.977Z,168.75
2023-05-05T12:28:35.968Z,146.25
2023-05-05T12:29:35.824Z,129.38
2023-05-05T12:30:35.057Z,118.12
2023-05-05T12:31:36.111Z,106.88
2023-05-05T12:32:35.020Z,101.25
2023-05-05T12:33:35.133Z,95.62
2023-05-05T12:34:35.233Z,84.38
2023-05-05T12:36:08.436Z,78.75
2023-05-05T12:36:34.922Z,73.12
2023-05-05T12:38:08.544Z,67.50
2023-05-05T12:38:34.909Z,61.88
2023-05-05T12:39:34.935Z,56.25
2023-05-05T12:40:34.937Z,56.25